sensor_id;sensor_type;location;lat;lon;timestamp;P1;durP1;ratioP1;P2;durP2;ratioP2
31043;SDS011;17710;52.520;13.352;2023-05-07T00:01:01;16.13;;;10.38;;
31043;SDS011;17710;52.520;13.352;2023-05-07T00:03:27;16.67;;;10.63;;
31043;SDS011;17710;52.520;13.352;2023-05-07T00:05:54;13.60;;;9.48;;
31043;SDS011;17710;52.520;13.352;2023-05-07T00:08:20;15.85;;;10.30;;
31043;SDS011;17710;52.520;13.352;2023-05-07T00:10:47;14.20;;;9.65;;
31043;SDS011;17710;52.520;13.352;2023-05-07T00:13:15;15.15;;;9.60;;
31043;SDS011;17710;52.520;13.352;2023-05-07T00:15:41;14.32;;;9.95;;
31043;SDS011;17710;52.520;13.352;2023-05-07T00:18:07;15.95;;;10.40;;
31043;SDS011;17710;52.520;13.352;2023-05-07T00:20:34;14.50;;;9.77;;
31043;SDS011;17710;52.520;13.352;2023-05-07T00:23:00;15.88;;;10.60;;
31043;SDS011;17710;52.520;13.352;2023-05-07T00:25:26;19.40;;;9.43;;
31043;SDS011;17710;52.520;13.352;2023-05-07T00:27:53;15.10;;;9.00;;
31043;SDS011;17710;52.520;13.352;2023-05-07T00:30:21;16.95;;;9.40;;
31043;SDS011;17710;52.520;13.352;2023-05-07T00:32:47;14.40;;;8.60;;
31043;SDS011;17710;52.520;13.352;2023-05-07T00:35:15;12.18;;;8.60;;
31043;SDS011;17710;52.520;13.352;2023-05-07T00:37:42;16.80;;;10.10;;
31043;SDS011;17710;52.520;13.352;2023-05-07T00:40:08;11.27;;;8.45;;
31043;SDS011;17710;52.520;13.352;2023-05-07T00:42:35;15.73;;;8.98;;
31043;SDS011;17710;52.520;13.352;2023-05-07T00:45:02;13.57;;;8.38;;
31043;SDS011;17710;52.520;13.352;2023-05-07T00:47:30;12.18;;;8.48;;
31043;SDS011;17710;52.520;13.352;2023-05-07T00:49:57;16.45;;;8.93;;
31043;SDS011;17710;52.520;13.352;2023-05-07T00:52:25;13.45;;;9.35;;
31043;SDS011;17710;52.520;13.352;2023-05-07T00:54:52;12.88;;;8.38;;
31043;SDS011;17710;52.520;13.352;2023-05-07T00:57:18;11.48;;;8.63;;
31043;SDS011;17710;52.520;13.352;2023-05-07T00:59:47;12.80;;;8.63;;
31043;SDS011;17710;52.520;13.352;2023-05-07T01:02:14;14.20;;;8.65;;
31043;SDS011;17710;52.520;13.352;2023-05-07T01:04:42;11.82;;;8.27;;
31043;SDS011;17710;52.520;13.352;2023-05-07T01:07:08;15.40;;;8.82;;
31043;SDS011;17710;52.520;13.352;2023-05-07T01:09:35;13.60;;;8.50;;
31043;SDS011;17710;52.520;13.352;2023-05-07T01:12:03;11.98;;;9.13;;
31043;SDS011;17710;52.520;13.352;2023-05-07T01:14:30;14.98;;;8.63;;
31043;SDS011;17710;52.520;13.352;2023-05-07T01:16:58;15.38;;;8.93;;
31043;SDS011;17710;52.520;13.352;2023-05-07T01:19:24;13.07;;;8.55;;
31043;SDS011;17710;52.520;13.352;2023-05-07T01:21:53;10.77;;;8.23;;
31043;SDS011;17710;52.520;13.352;2023-05-07T01:24:29;11.52;;;8.60;;
31043;SDS011;17710;52.520;13.352;2023-05-07T01:26:56;12.25;;;8.07;;
31043;SDS011;17710;52.520;13.352;2023-05-07T01:29:22;13.20;;;8.55;;
31043;SDS011;17710;52.520;13.352;2023-05-07T01:31:48;11.00;;;8.07;;
31043;SDS011;17710;52.520;13.352;2023-05-07T01:34:17;12.50;;;8.38;;
31043;SDS011;17710;52.520;13.352;2023-05-07T01:36:45;10.77;;;8.20;;
31043;SDS011;17710;52.520;13.352;2023-05-07T01:39:13;13.35;;;8.00;;
31043;SDS011;17710;52.520;13.352;2023-05-07T01:41:42;11.10;;;7.72;;
31043;SDS011;17710;52.520;13.352;2023-05-07T01:44:09;14.77;;;7.97;;
31043;SDS011;17710;52.520;13.352;2023-05-07T01:46:38;9.13;;;7.22;;
31043;SDS011;17710;52.520;13.352;2023-05-07T01:49:04;9.57;;;7.75;;
31043;SDS011;17710;52.520;13.352;2023-05-07T01:51:31;10.90;;;7.90;;
31043;SDS011;17710;52.520;13.352;2023-05-07T01:53:58;10.82;;;8.30;;
31043;SDS011;17710;52.520;13.352;2023-05-07T01:56:25;11.35;;;7.82;;
31043;SDS011;17710;52.520;13.352;2023-05-07T01:58:53;10.25;;;7.65;;
31043;SDS011;17710;52.520;13.352;2023-05-07T02:01:19;13.15;;;8.13;;
31043;SDS011;17710;52.520;13.352;2023-05-07T02:03:46;13.63;;;8.15;;
31043;SDS011;17710;52.520;13.352;2023-05-07T02:06:12;12.27;;;8.07;;
31043;SDS011;17710;52.520;13.352;2023-05-07T02:08:39;12.43;;;8.45;;
31043;SDS011;17710;52.520;13.352;2023-05-07T02:11:05;14.15;;;9.40;;
31043;SDS011;17710;52.520;13.352;2023-05-07T02:13:32;13.00;;;8.85;;
31043;SDS011;17710;52.520;13.352;2023-05-07T02:16:01;12.63;;;9.00;;
31043;SDS011;17710;52.520;13.352;2023-05-07T02:18:27;13.43;;;8.50;;
31043;SDS011;17710;52.520;13.352;2023-05-07T02:20:54;13.82;;;9.02;;
31043;SDS011;17710;52.520;13.352;2023-05-07T02:23:20;14.15;;;9.45;;
31043;SDS011;17710;52.520;13.352;2023-05-07T02:25:46;14.00;;;9.80;;
31043;SDS011;17710;52.520;13.352;2023-05-07T02:28:13;16.15;;;9.10;;
31043;SDS011;17710;52.520;13.352;2023-05-07T02:30:39;12.43;;;9.75;;
31043;SDS011;17710;52.520;13.352;2023-05-07T02:33:07;14.68;;;9.18;;
31043;SDS011;17710;52.520;13.352;2023-05-07T02:35:34;15.13;;;9.38;;
31043;SDS011;17710;52.520;13.352;2023-05-07T02:38:00;13.93;;;8.45;;
31043;SDS011;17710;52.520;13.352;2023-05-07T02:40:27;15.93;;;10.20;;
31043;SDS011;17710;52.520;13.352;2023-05-07T02:42:53;11.63;;;8.90;;
31043;SDS011;17710;52.520;13.352;2023-05-07T02:45:19;12.10;;;9.05;;
31043;SDS011;17710;52.520;13.352;2023-05-07T02:47:46;16.02;;;8.55;;
31043;SDS011;17710;52.520;13.352;2023-05-07T02:50:14;18.48;;;9.55;;
31043;SDS011;17710;52.520;13.352;2023-05-07T02:52:40;13.57;;;8.70;;
31043;SDS011;17710;52.520;13.352;2023-05-07T02:55:07;15.32;;;8.93;;
31043;SDS011;17710;52.520;13.352;2023-05-07T02:57:34;13.88;;;8.20;;
31043;SDS011;17710;52.520;13.352;2023-05-07T03:00:06;12.63;;;8.90;;
31043;SDS011;17710;52.520;13.352;2023-05-07T03:02:36;12.77;;;8.30;;
31043;SDS011;17710;52.520;13.352;2023-05-07T03:05:03;11.32;;;7.72;;
31043;SDS011;17710;52.520;13.352;2023-05-07T03:07:31;14.30;;;8.02;;
31043;SDS011;17710;52.520;13.352;2023-05-07T03:09:58;11.52;;;8.30;;
31043;SDS011;17710;52.520;13.352;2023-05-07T03:12:24;14.63;;;8.65;;
31043;SDS011;17710;52.520;13.352;2023-05-07T03:14:50;9.88;;;7.50;;
31043;SDS011;17710;52.520;13.352;2023-05-07T03:17:17;12.32;;;7.90;;
31043;SDS011;17710;52.520;13.352;2023-05-07T03:19:43;10.18;;;7.07;;
31043;SDS011;17710;52.520;13.352;2023-05-07T03:22:10;16.70;;;8.82;;
31043;SDS011;17710;52.520;13.352;2023-05-07T03:24:37;12.15;;;8.02;;
31043;SDS011;17710;52.520;13.352;2023-05-07T03:27:04;11.48;;;8.38;;
31043;SDS011;17710;52.520;13.352;2023-05-07T03:29:30;12.35;;;7.75;;
31043;SDS011;17710;52.520;13.352;2023-05-07T03:31:56;12.57;;;8.30;;
31043;SDS011;17710;52.520;13.352;2023-05-07T03:34:23;10.13;;;7.75;;
31043;SDS011;17710;52.520;13.352;2023-05-07T03:36:49;14.70;;;8.07;;
31043;SDS011;17710;52.520;13.352;2023-05-07T03:39:16;9.63;;;7.28;;
31043;SDS011;17710;52.520;13.352;2023-05-07T03:41:44;14.13;;;7.75;;
31043;SDS011;17710;52.520;13.352;2023-05-07T03:44:10;13.70;;;8.82;;
31043;SDS011;17710;52.520;13.352;2023-05-07T03:46:37;11.23;;;7.70;;
31043;SDS011;17710;52.520;13.352;2023-05-07T03:49:04;12.50;;;8.00;;
31043;SDS011;17710;52.520;13.352;2023-05-07T03:51:30;11.20;;;7.75;;
31043;SDS011;17710;52.520;13.352;2023-05-07T03:53:57;13.60;;;8.27;;
31043;SDS011;17710;52.520;13.352;2023-05-07T03:56:23;12.23;;;8.70;;
31043;SDS011;17710;52.520;13.352;2023-05-07T03:58:52;12.35;;;8.32;;
31043;SDS011;17710;52.520;13.352;2023-05-07T04:01:19;11.40;;;8.15;;
31043;SDS011;17710;52.520;13.352;2023-05-07T04:03:45;14.55;;;8.68;;
31043;SDS011;17710;52.520;13.352;2023-05-07T04:06:11;13.45;;;8.55;;
31043;SDS011;17710;52.520;13.352;2023-05-07T04:08:38;10.73;;;8.23;;
31043;SDS011;17710;52.520;13.352;2023-05-07T04:11:04;13.13;;;7.68;;
31043;SDS011;17710;52.520;13.352;2023-05-07T04:13:30;12.15;;;7.65;;
31043;SDS011;17710;52.520;13.352;2023-05-07T04:15:58;16.25;;;8.98;;
31043;SDS011;17710;52.520;13.352;2023-05-07T04:18:25;9.63;;;7.40;;
31043;SDS011;17710;52.520;13.352;2023-05-07T04:20:51;12.25;;;7.60;;
31043;SDS011;17710;52.520;13.352;2023-05-07T04:23:17;13.45;;;7.15;;
31043;SDS011;17710;52.520;13.352;2023-05-07T04:25:44;12.30;;;7.82;;
31043;SDS011;17710;52.520;13.352;2023-05-07T04:28:11;13.43;;;7.78;;
31043;SDS011;17710;52.520;13.352;2023-05-07T04:30:37;12.25;;;7.60;;
31043;SDS011;17710;52.520;13.352;2023-05-07T04:33:05;12.55;;;7.43;;
31043;SDS011;17710;52.520;13.352;2023-05-07T04:35:31;10.68;;;7.63;;
31043;SDS011;17710;52.520;13.352;2023-05-07T04:37:58;10.73;;;7.20;;
31043;SDS011;17710;52.520;13.352;2023-05-07T04:40:24;10.60;;;7.13;;
31043;SDS011;17710;52.520;13.352;2023-05-07T04:42:51;9.93;;;6.88;;
31043;SDS011;17710;52.520;13.352;2023-05-07T04:45:18;11.10;;;7.15;;
31043;SDS011;17710;52.520;13.352;2023-05-07T04:47:44;10.60;;;6.95;;
31043;SDS011;17710;52.520;13.352;2023-05-07T04:50:12;8.88;;;6.70;;
31043;SDS011;17710;52.520;13.352;2023-05-07T04:52:38;9.65;;;5.63;;
31043;SDS011;17710;52.520;13.352;2023-05-07T04:55:05;10.80;;;6.28;;
31043;SDS011;17710;52.520;13.352;2023-05-07T04:57:32;9.85;;;6.10;;
31043;SDS011;17710;52.520;13.352;2023-05-07T04:59:58;10.23;;;6.32;;
31043;SDS011;17710;52.520;13.352;2023-05-07T05:02:25;14.40;;;6.95;;
31043;SDS011;17710;52.520;13.352;2023-05-07T05:04:51;8.18;;;5.97;;
31043;SDS011;17710;52.520;13.352;2023-05-07T05:07:19;8.75;;;6.10;;
31043;SDS011;17710;52.520;13.352;2023-05-07T05:09:45;8.20;;;6.03;;
31043;SDS011;17710;52.520;13.352;2023-05-07T05:12:12;7.60;;;5.80;;
31043;SDS011;17710;52.520;13.352;2023-05-07T05:14:38;7.07;;;5.78;;
31043;SDS011;17710;52.520;13.352;2023-05-07T05:17:04;7.60;;;5.22;;
31043;SDS011;17710;52.520;13.352;2023-05-07T05:19:31;6.03;;;4.90;;
31043;SDS011;17710;52.520;13.352;2023-05-07T05:21:58;7.43;;;5.30;;
31043;SDS011;17710;52.520;13.352;2023-05-07T05:24:27;7.57;;;5.75;;
31043;SDS011;17710;52.520;13.352;2023-05-07T05:26:53;7.60;;;5.45;;
31043;SDS011;17710;52.520;13.352;2023-05-07T05:29:20;7.28;;;5.55;;
31043;SDS011;17710;52.520;13.352;2023-05-07T05:31:46;8.70;;;5.32;;
31043;SDS011;17710;52.520;13.352;2023-05-07T05:34:13;8.30;;;5.25;;
31043;SDS011;17710;52.520;13.352;2023-05-07T05:36:40;6.40;;;5.13;;
31043;SDS011;17710;52.520;13.352;2023-05-07T05:39:07;7.22;;;5.22;;
31043;SDS011;17710;52.520;13.352;2023-05-07T05:41:35;8.27;;;5.45;;
31043;SDS011;17710;52.520;13.352;2023-05-07T05:44:02;8.85;;;5.55;;
31043;SDS011;17710;52.520;13.352;2023-05-07T05:46:28;9.25;;;5.05;;
31043;SDS011;17710;52.520;13.352;2023-05-07T05:48:55;8.23;;;6.25;;
31043;SDS011;17710;52.520;13.352;2023-05-07T05:51:22;9.85;;;5.70;;
31043;SDS011;17710;52.520;13.352;2023-05-07T05:53:48;7.35;;;4.90;;
31043;SDS011;17710;52.520;13.352;2023-05-07T05:56:15;9.07;;;5.30;;
31043;SDS011;17710;52.520;13.352;2023-05-07T05:58:43;6.43;;;4.85;;
31043;SDS011;17710;52.520;13.352;2023-05-07T06:01:09;7.82;;;5.65;;
31043;SDS011;17710;52.520;13.352;2023-05-07T06:03:37;12.80;;;6.68;;
31043;SDS011;17710;52.520;13.352;2023-05-07T06:06:03;8.65;;;5.78;;
31043;SDS011;17710;52.520;13.352;2023-05-07T06:08:30;6.70;;;5.20;;
31043;SDS011;17710;52.520;13.352;2023-05-07T06:10:56;10.38;;;5.97;;
31043;SDS011;17710;52.520;13.352;2023-05-07T06:13:23;9.68;;;6.10;;
31043;SDS011;17710;52.520;13.352;2023-05-07T06:15:51;8.80;;;6.28;;
31043;SDS011;17710;52.520;13.352;2023-05-07T06:18:17;6.30;;;5.47;;
31043;SDS011;17710;52.520;13.352;2023-05-07T06:20:43;7.60;;;5.57;;
31043;SDS011;17710;52.520;13.352;2023-05-07T06:23:10;8.55;;;6.07;;
31043;SDS011;17710;52.520;13.352;2023-05-07T06:25:36;7.13;;;5.53;;
31043;SDS011;17710;52.520;13.352;2023-05-07T06:28:03;10.20;;;5.70;;
31043;SDS011;17710;52.520;13.352;2023-05-07T06:30:29;6.60;;;5.57;;
31043;SDS011;17710;52.520;13.352;2023-05-07T06:32:57;11.70;;;5.88;;
31043;SDS011;17710;52.520;13.352;2023-05-07T06:35:23;10.15;;;6.22;;
31043;SDS011;17710;52.520;13.352;2023-05-07T06:37:50;8.63;;;5.88;;
31043;SDS011;17710;52.520;13.352;2023-05-07T06:40:16;7.22;;;5.70;;
31043;SDS011;17710;52.520;13.352;2023-05-07T06:42:43;8.35;;;5.93;;
31043;SDS011;17710;52.520;13.352;2023-05-07T06:45:10;9.85;;;5.50;;
31043;SDS011;17710;52.520;13.352;2023-05-07T06:47:36;8.68;;;5.57;;
31043;SDS011;17710;52.520;13.352;2023-05-07T06:50:05;10.20;;;5.60;;
31043;SDS011;17710;52.520;13.352;2023-05-07T06:52:32;9.48;;;5.70;;
31043;SDS011;17710;52.520;13.352;2023-05-07T06:54:59;7.43;;;5.90;;
31043;SDS011;17710;52.520;13.352;2023-05-07T06:57:25;9.63;;;5.80;;
31043;SDS011;17710;52.520;13.352;2023-05-07T06:59:52;9.52;;;6.20;;
31043;SDS011;17710;52.520;13.352;2023-05-07T07:02:18;7.68;;;5.38;;
31043;SDS011;17710;52.520;13.352;2023-05-07T07:04:45;9.13;;;5.75;;
31043;SDS011;17710;52.520;13.352;2023-05-07T07:07:13;9.77;;;4.82;;
31043;SDS011;17710;52.520;13.352;2023-05-07T07:09:39;10.13;;;5.35;;
31043;SDS011;17710;52.520;13.352;2023-05-07T07:12:06;6.60;;;4.45;;
31043;SDS011;17710;52.520;13.352;2023-05-07T07:14:32;5.85;;;4.95;;
31043;SDS011;17710;52.520;13.352;2023-05-07T07:16:59;6.13;;;4.15;;
31043;SDS011;17710;52.520;13.352;2023-05-07T07:19:25;6.30;;;4.22;;
31043;SDS011;17710;52.520;13.352;2023-05-07T07:21:52;8.40;;;4.43;;
31043;SDS011;17710;52.520;13.352;2023-05-07T07:24:19;5.80;;;4.03;;
31043;SDS011;17710;52.520;13.352;2023-05-07T07:26:46;6.90;;;4.07;;
31043;SDS011;17710;52.520;13.352;2023-05-07T07:29:12;6.15;;;4.43;;
31043;SDS011;17710;52.520;13.352;2023-05-07T07:31:39;7.65;;;4.40;;
31043;SDS011;17710;52.520;13.352;2023-05-07T07:34:05;5.57;;;4.20;;
31043;SDS011;17710;52.520;13.352;2023-05-07T07:36:32;4.65;;;3.70;;
31043;SDS011;17710;52.520;13.352;2023-05-07T07:38:58;6.13;;;4.18;;
31043;SDS011;17710;52.520;13.352;2023-05-07T07:41:27;5.32;;;3.97;;
31043;SDS011;17710;52.520;13.352;2023-05-07T07:43:53;6.57;;;4.57;;
31043;SDS011;17710;52.520;13.352;2023-05-07T07:46:19;4.95;;;4.03;;
31043;SDS011;17710;52.520;13.352;2023-05-07T07:48:46;4.65;;;3.58;;
31043;SDS011;17710;52.520;13.352;2023-05-07T07:51:12;4.63;;;3.35;;
31043;SDS011;17710;52.520;13.352;2023-05-07T07:53:39;4.72;;;3.10;;
31043;SDS011;17710;52.520;13.352;2023-05-07T07:56:06;5.13;;;3.03;;
31043;SDS011;17710;52.520;13.352;2023-05-07T07:58:33;4.72;;;3.22;;
31043;SDS011;17710;52.520;13.352;2023-05-07T08:01:00;6.32;;;3.47;;
31043;SDS011;17710;52.520;13.352;2023-05-07T08:03:27;5.45;;;3.72;;
31043;SDS011;17710;52.520;13.352;2023-05-07T08:05:56;4.90;;;3.50;;
31043;SDS011;17710;52.520;13.352;2023-05-07T08:08:23;5.28;;;2.95;;
31043;SDS011;17710;52.520;13.352;2023-05-07T08:10:49;4.85;;;3.40;;
31043;SDS011;17710;52.520;13.352;2023-05-07T08:13:16;3.65;;;2.67;;
31043;SDS011;17710;52.520;13.352;2023-05-07T08:15:44;4.35;;;2.97;;
31043;SDS011;17710;52.520;13.352;2023-05-07T08:18:11;8.23;;;3.28;;
31043;SDS011;17710;52.520;13.352;2023-05-07T08:20:37;3.30;;;3.00;;
31043;SDS011;17710;52.520;13.352;2023-05-07T08:23:04;3.45;;;2.83;;
31043;SDS011;17710;52.520;13.352;2023-05-07T08:25:32;4.20;;;2.35;;
31043;SDS011;17710;52.520;13.352;2023-05-07T08:27:59;4.40;;;2.90;;
31043;SDS011;17710;52.520;13.352;2023-05-07T08:30:25;10.38;;;3.70;;
31043;SDS011;17710;52.520;13.352;2023-05-07T08:32:53;8.07;;;3.03;;
31043;SDS011;17710;52.520;13.352;2023-05-07T08:35:19;4.10;;;3.03;;
31043;SDS011;17710;52.520;13.352;2023-05-07T08:37:46;3.78;;;3.28;;
31043;SDS011;17710;52.520;13.352;2023-05-07T08:40:12;9.70;;;2.88;;
31043;SDS011;17710;52.520;13.352;2023-05-07T08:42:38;5.18;;;2.42;;
31043;SDS011;17710;52.520;13.352;2023-05-07T08:45:07;4.78;;;2.65;;
31043;SDS011;17710;52.520;13.352;2023-05-07T08:47:39;3.22;;;2.50;;
31043;SDS011;17710;52.520;13.352;2023-05-07T08:50:10;6.18;;;2.70;;
31043;SDS011;17710;52.520;13.352;2023-05-07T08:52:36;2.80;;;2.10;;
31043;SDS011;17710;52.520;13.352;2023-05-07T08:55:03;3.13;;;2.50;;
31043;SDS011;17710;52.520;13.352;2023-05-07T08:57:31;3.50;;;2.55;;
31043;SDS011;17710;52.520;13.352;2023-05-07T08:59:57;4.57;;;2.60;;
31043;SDS011;17710;52.520;13.352;2023-05-07T09:02:24;6.65;;;2.70;;
31043;SDS011;17710;52.520;13.352;2023-05-07T09:04:50;3.78;;;2.17;;
31043;SDS011;17710;52.520;13.352;2023-05-07T09:07:19;4.10;;;2.33;;
31043;SDS011;17710;52.520;13.352;2023-05-07T09:09:46;4.18;;;2.63;;
31043;SDS011;17710;52.520;13.352;2023-05-07T09:12:12;5.53;;;2.10;;
31043;SDS011;17710;52.520;13.352;2023-05-07T09:14:39;5.15;;;2.22;;
31043;SDS011;17710;52.520;13.352;2023-05-07T09:17:06;2.85;;;2.15;;
31043;SDS011;17710;52.520;13.352;2023-05-07T09:19:32;7.10;;;2.55;;
31043;SDS011;17710;52.520;13.352;2023-05-07T09:21:59;12.95;;;6.50;;
31043;SDS011;17710;52.520;13.352;2023-05-07T09:24:27;4.85;;;2.53;;
31043;SDS011;17710;52.520;13.352;2023-05-07T09:26:58;8.48;;;2.47;;
31043;SDS011;17710;52.520;13.352;2023-05-07T09:29:26;3.15;;;2.40;;
31043;SDS011;17710;52.520;13.352;2023-05-07T09:31:53;5.65;;;2.33;;
31043;SDS011;17710;52.520;13.352;2023-05-07T09:34:20;3.53;;;2.15;;
31043;SDS011;17710;52.520;13.352;2023-05-07T09:36:47;6.50;;;2.50;;
31043;SDS011;17710;52.520;13.352;2023-05-07T09:39:13;3.13;;;2.45;;
31043;SDS011;17710;52.520;13.352;2023-05-07T09:41:44;3.17;;;2.25;;
31043;SDS011;17710;52.520;13.352;2023-05-07T09:44:11;6.13;;;2.20;;
31043;SDS011;17710;52.520;13.352;2023-05-07T09:46:38;3.72;;;2.42;;
31043;SDS011;17710;52.520;13.352;2023-05-07T09:49:07;3.65;;;2.60;;
31043;SDS011;17710;52.520;13.352;2023-05-07T09:51:41;4.03;;;2.30;;
31043;SDS011;17710;52.520;13.352;2023-05-07T09:54:11;4.10;;;2.15;;
31043;SDS011;17710;52.520;13.352;2023-05-07T09:56:38;3.20;;;2.50;;
31043;SDS011;17710;52.520;13.352;2023-05-07T09:59:08;2.85;;;2.42;;
31043;SDS011;17710;52.520;13.352;2023-05-07T10:01:38;5.13;;;2.38;;
31043;SDS011;17710;52.520;13.352;2023-05-07T10:04:07;4.20;;;2.25;;
31043;SDS011;17710;52.520;13.352;2023-05-07T10:06:34;6.22;;;2.38;;
31043;SDS011;17710;52.520;13.352;2023-05-07T10:09:00;5.57;;;2.20;;
31043;SDS011;17710;52.520;13.352;2023-05-07T10:11:29;7.88;;;2.28;;
31043;SDS011;17710;52.520;13.352;2023-05-07T10:13:57;2.97;;;1.83;;
31043;SDS011;17710;52.520;13.352;2023-05-07T10:16:25;3.17;;;1.90;;
31043;SDS011;17710;52.520;13.352;2023-05-07T10:18:53;3.50;;;1.60;;
31043;SDS011;17710;52.520;13.352;2023-05-07T10:21:22;3.22;;;1.95;;
31043;SDS011;17710;52.520;13.352;2023-05-07T10:23:56;3.40;;;2.10;;
31043;SDS011;17710;52.520;13.352;2023-05-07T10:26:25;3.05;;;1.80;;
31043;SDS011;17710;52.520;13.352;2023-05-07T10:28:55;5.60;;;2.10;;
31043;SDS011;17710;52.520;13.352;2023-05-07T10:34:27;5.00;;;1.73;;
31043;SDS011;17710;52.520;13.352;2023-05-07T10:37:01;2.97;;;1.50;;
31043;SDS011;17710;52.520;13.352;2023-05-07T10:39:29;1.33;;;1.23;;
31043;SDS011;17710;52.520;13.352;2023-05-07T10:41:56;1.98;;;1.58;;
31043;SDS011;17710;52.520;13.352;2023-05-07T10:44:26;1.90;;;1.35;;
31043;SDS011;17710;52.520;13.352;2023-05-07T10:47:05;1.55;;;1.45;;
31043;SDS011;17710;52.520;13.352;2023-05-07T10:49:36;1.30;;;1.20;;
31043;SDS011;17710;52.520;13.352;2023-05-07T10:52:13;2.13;;;1.40;;
31043;SDS011;17710;52.520;13.352;2023-05-07T10:54:40;3.72;;;1.90;;
31043;SDS011;17710;52.520;13.352;2023-05-07T11:00:00;1.67;;;1.38;;
31043;SDS011;17710;52.520;13.352;2023-05-07T11:05:38;3.92;;;1.20;;
31043;SDS011;17710;52.520;13.352;2023-05-07T11:08:08;1.48;;;1.20;;
31043;SDS011;17710;52.520;13.352;2023-05-07T11:10:48;1.85;;;1.30;;
31043;SDS011;17710;52.520;13.352;2023-05-07T11:13:15;2.90;;;1.50;;
31043;SDS011;17710;52.520;13.352;2023-05-07T11:15:43;5.25;;;1.42;;
31043;SDS011;17710;52.520;13.352;2023-05-07T11:18:12;2.85;;;1.50;;
31043;SDS011;17710;52.520;13.352;2023-05-07T11:20:51;1.40;;;1.30;;
31043;SDS011;17710;52.520;13.352;2023-05-07T11:26:27;1.58;;;1.30;;
31043;SDS011;17710;52.520;13.352;2023-05-07T11:28:56;1.70;;;1.30;;
31043;SDS011;17710;52.520;13.352;2023-05-07T11:31:25;2.78;;;1.20;;
31043;SDS011;17710;52.520;13.352;2023-05-07T11:33:53;1.85;;;1.48;;
31043;SDS011;17710;52.520;13.352;2023-05-07T11:36:23;1.67;;;1.30;;
31043;SDS011;17710;52.520;13.352;2023-05-07T11:38:51;2.13;;;1.75;;
31043;SDS011;17710;52.520;13.352;2023-05-07T11:41:17;1.42;;;1.17;;
31043;SDS011;17710;52.520;13.352;2023-05-07T11:43:53;4.07;;;1.55;;
31043;SDS011;17710;52.520;13.352;2023-05-07T11:46:23;2.53;;;1.98;;
31043;SDS011;17710;52.520;13.352;2023-05-07T11:48:50;3.30;;;1.80;;
31043;SDS011;17710;52.520;13.352;2023-05-07T11:51:20;2.95;;;1.48;;
31043;SDS011;17710;52.520;13.352;2023-05-07T11:53:49;3.13;;;1.67;;
31043;SDS011;17710;52.520;13.352;2023-05-07T11:56:17;1.40;;;1.30;;
31043;SDS011;17710;52.520;13.352;2023-05-07T11:58:45;2.20;;;1.60;;
31043;SDS011;17710;52.520;13.352;2023-05-07T12:01:13;2.20;;;1.90;;
31043;SDS011;17710;52.520;13.352;2023-05-07T12:03:40;3.08;;;1.70;;
31043;SDS011;17710;52.520;13.352;2023-05-07T12:06:08;2.58;;;1.73;;
31043;SDS011;17710;52.520;13.352;2023-05-07T12:08:37;2.78;;;1.60;;
31043;SDS011;17710;52.520;13.352;2023-05-07T12:11:08;2.13;;;1.40;;
31043;SDS011;17710;52.520;13.352;2023-05-07T12:13:36;3.55;;;1.48;;
31043;SDS011;17710;52.520;13.352;2023-05-07T12:16:03;2.33;;;1.33;;
31043;SDS011;17710;52.520;13.352;2023-05-07T12:18:31;5.10;;;1.50;;
31043;SDS011;17710;52.520;13.352;2023-05-07T12:20:59;2.58;;;1.40;;
31043;SDS011;17710;52.520;13.352;2023-05-07T12:23:26;3.00;;;1.88;;
31043;SDS011;17710;52.520;13.352;2023-05-07T12:25:53;4.50;;;1.60;;
31043;SDS011;17710;52.520;13.352;2023-05-07T12:28:21;5.38;;;1.63;;
31043;SDS011;17710;52.520;13.352;2023-05-07T12:30:48;1.98;;;1.23;;
31043;SDS011;17710;52.520;13.352;2023-05-07T12:33:16;2.75;;;1.55;;
31043;SDS011;17710;52.520;13.352;2023-05-07T12:35:45;2.53;;;1.40;;
31043;SDS011;17710;52.520;13.352;2023-05-07T12:38:14;3.17;;;1.15;;
31043;SDS011;17710;52.520;13.352;2023-05-07T12:40:42;7.78;;;1.83;;
31043;SDS011;17710;52.520;13.352;2023-05-07T12:43:15;1.95;;;1.38;;
31043;SDS011;17710;52.520;13.352;2023-05-07T12:45:43;2.20;;;1.35;;
31043;SDS011;17710;52.520;13.352;2023-05-07T12:48:14;2.85;;;1.30;;
31043;SDS011;17710;52.520;13.352;2023-05-07T12:50:53;2.00;;;1.23;;
31043;SDS011;17710;52.520;13.352;2023-05-07T12:53:26;1.92;;;1.10;;
31043;SDS011;17710;52.520;13.352;2023-05-07T12:55:54;5.90;;;1.40;;
31043;SDS011;17710;52.520;13.352;2023-05-07T12:58:26;1.92;;;0.98;;
31043;SDS011;17710;52.520;13.352;2023-05-07T13:01:05;4.38;;;1.60;;
31043;SDS011;17710;52.520;13.352;2023-05-07T13:03:47;1.73;;;1.08;;
31043;SDS011;17710;52.520;13.352;2023-05-07T13:06:25;2.90;;;1.58;;
31043;SDS011;17710;52.520;13.352;2023-05-07T13:08:52;2.15;;;0.98;;
31043;SDS011;17710;52.520;13.352;2023-05-07T13:11:19;2.33;;;1.50;;
31043;SDS011;17710;52.520;13.352;2023-05-07T13:13:45;3.95;;;1.30;;
31043;SDS011;17710;52.520;13.352;2023-05-07T13:16:13;2.75;;;1.23;;
31043;SDS011;17710;52.520;13.352;2023-05-07T13:18:40;1.40;;;1.10;;
31043;SDS011;17710;52.520;13.352;2023-05-07T13:21:08;2.55;;;1.45;;
31043;SDS011;17710;52.520;13.352;2023-05-07T13:23:35;2.85;;;1.17;;
31043;SDS011;17710;52.520;13.352;2023-05-07T13:26:03;2.17;;;0.90;;
31043;SDS011;17710;52.520;13.352;2023-05-07T13:28:29;2.92;;;1.00;;
31043;SDS011;17710;52.520;13.352;2023-05-07T13:30:56;2.10;;;0.77;;
31043;SDS011;17710;52.520;13.352;2023-05-07T13:33:24;1.63;;;1.00;;
31043;SDS011;17710;52.520;13.352;2023-05-07T13:35:50;2.42;;;1.20;;
31043;SDS011;17710;52.520;13.352;2023-05-07T13:38:17;3.00;;;1.73;;
31043;SDS011;17710;52.520;13.352;2023-05-07T13:40:44;2.55;;;1.50;;
31043;SDS011;17710;52.520;13.352;2023-05-07T13:43:10;1.60;;;1.10;;
31043;SDS011;17710;52.520;13.352;2023-05-07T13:45:37;1.75;;;1.55;;
31043;SDS011;17710;52.520;13.352;2023-05-07T13:48:03;1.88;;;1.42;;
31043;SDS011;17710;52.520;13.352;2023-05-07T13:50:31;3.72;;;1.50;;
31043;SDS011;17710;52.520;13.352;2023-05-07T13:52:58;2.88;;;1.70;;
31043;SDS011;17710;52.520;13.352;2023-05-07T13:55:24;1.00;;;1.00;;
31043;SDS011;17710;52.520;13.352;2023-05-07T13:57:55;2.97;;;1.65;;
31043;SDS011;17710;52.520;13.352;2023-05-07T14:00:23;1.30;;;1.20;;
31043;SDS011;17710;52.520;13.352;2023-05-07T14:02:49;2.08;;;1.10;;
31043;SDS011;17710;52.520;13.352;2023-05-07T14:05:16;2.55;;;1.20;;
31043;SDS011;17710;52.520;13.352;2023-05-07T14:07:43;2.95;;;1.60;;
31043;SDS011;17710;52.520;13.352;2023-05-07T14:10:10;1.95;;;1.20;;
31043;SDS011;17710;52.520;13.352;2023-05-07T14:12:38;1.35;;;1.00;;
31043;SDS011;17710;52.520;13.352;2023-05-07T14:15:04;3.38;;;1.30;;
31043;SDS011;17710;52.520;13.352;2023-05-07T14:17:31;2.33;;;1.30;;
31043;SDS011;17710;52.520;13.352;2023-05-07T14:19:57;1.95;;;1.10;;
31043;SDS011;17710;52.520;13.352;2023-05-07T14:22:24;1.70;;;1.17;;
31043;SDS011;17710;52.520;13.352;2023-05-07T14:24:52;1.63;;;1.10;;
31043;SDS011;17710;52.520;13.352;2023-05-07T14:27:18;3.13;;;1.35;;
31043;SDS011;17710;52.520;13.352;2023-05-07T14:29:44;3.05;;;1.33;;
31043;SDS011;17710;52.520;13.352;2023-05-07T14:32:15;1.45;;;1.08;;
31043;SDS011;17710;52.520;13.352;2023-05-07T14:34:42;3.47;;;1.30;;
31043;SDS011;17710;52.520;13.352;2023-05-07T14:37:08;4.85;;;1.33;;
31043;SDS011;17710;52.520;13.352;2023-05-07T14:39:38;1.38;;;1.10;;
31043;SDS011;17710;52.520;13.352;2023-05-07T14:42:06;3.47;;;1.52;;
31043;SDS011;17710;52.520;13.352;2023-05-07T14:44:33;1.83;;;1.23;;